sensor_id;sensor_type;location;lat;lon;timestamp;P1;durP1;ratioP1;P2;durP2;ratioP2
16593;SDS011;8410;52.532;13.336;2023-06-22T00:00:18;12.68;;;11.52;;
16593;SDS011;8410;52.532;13.336;2023-06-22T00:02:47;12.25;;;11.07;;
16593;SDS011;8410;52.532;13.336;2023-06-22T00:05:15;11.38;;;10.38;;
16593;SDS011;8410;52.532;13.336;2023-06-22T00:07:44;11.45;;;10.55;;
16593;SDS011;8410;52.532;13.336;2023-06-22T00:10:11;11.98;;;10.90;;
16593;SDS011;8410;52.532;13.336;2023-06-22T00:12:39;11.70;;;10.70;;
16593;SDS011;8410;52.532;13.336;2023-06-22T00:15:06;11.80;;;10.70;;
16593;SDS011;8410;52.532;13.336;2023-06-22T00:17:34;12.63;;;11.45;;
16593;SDS011;8410;52.532;13.336;2023-06-22T00:20:02;10.80;;;9.90;;
16593;SDS011;8410;52.532;13.336;2023-06-22T00:22:33;11.10;;;10.07;;
16593;SDS011;8410;52.532;13.336;2023-06-22T00:25:07;11.05;;;10.15;;
16593;SDS011;8410;52.532;13.336;2023-06-22T00:27:35;12.48;;;11.20;;
16593;SDS011;8410;52.532;13.336;2023-06-22T00:30:02;11.57;;;10.55;;
16593;SDS011;8410;52.532;13.336;2023-06-22T00:32:30;11.20;;;10.27;;
16593;SDS011;8410;52.532;13.336;2023-06-22T00:34:58;10.07;;;9.30;;
16593;SDS011;8410;52.532;13.336;2023-06-22T00:37:26;10.25;;;9.32;;
16593;SDS011;8410;52.532;13.336;2023-06-22T00:39:55;11.32;;;10.32;;
16593;SDS011;8410;52.532;13.336;2023-06-22T00:42:24;11.07;;;10.18;;
16593;SDS011;8410;52.532;13.336;2023-06-22T00:44:52;10.82;;;9.82;;
16593;SDS011;8410;52.532;13.336;2023-06-22T00:47:20;11.27;;;10.27;;
16593;SDS011;8410;52.532;13.336;2023-06-22T00:49:48;11.13;;;10.15;;
16593;SDS011;8410;52.532;13.336;2023-06-22T00:52:17;11.50;;;10.50;;
16593;SDS011;8410;52.532;13.336;2023-06-22T00:54:47;10.35;;;9.45;;
16593;SDS011;8410;52.532;13.336;2023-06-22T00:57:15;10.70;;;9.73;;
16593;SDS011;8410;52.532;13.336;2023-06-22T00:59:45;10.98;;;10.05;;
16593;SDS011;8410;52.532;13.336;2023-06-22T01:02:14;10.55;;;9.60;;
16593;SDS011;8410;52.532;13.336;2023-06-22T01:04:42;10.80;;;10.00;;
16593;SDS011;8410;52.532;13.336;2023-06-22T01:07:10;10.93;;;9.85;;
16593;SDS011;8410;52.532;13.336;2023-06-22T01:09:49;13.32;;;11.75;;
16593;SDS011;8410;52.532;13.336;2023-06-22T01:12:20;11.38;;;10.40;;
16593;SDS011;8410;52.532;13.336;2023-06-22T01:14:52;11.00;;;10.10;;
16593;SDS011;8410;52.532;13.336;2023-06-22T01:17:25;11.60;;;10.48;;
16593;SDS011;8410;52.532;13.336;2023-06-22T01:19:54;11.57;;;10.48;;
16593;SDS011;8410;52.532;13.336;2023-06-22T01:22:23;11.05;;;10.15;;
16593;SDS011;8410;52.532;13.336;2023-06-22T01:24:57;12.13;;;10.98;;
16593;SDS011;8410;52.532;13.336;2023-06-22T01:27:36;11.32;;;10.40;;
16593;SDS011;8410;52.532;13.336;2023-06-22T01:30:09;12.20;;;11.10;;
16593;SDS011;8410;52.532;13.336;2023-06-22T01:32:38;11.90;;;10.80;;
16593;SDS011;8410;52.532;13.336;2023-06-22T01:35:08;11.50;;;10.52;;
16593;SDS011;8410;52.532;13.336;2023-06-22T01:37:37;11.57;;;10.68;;
16593;SDS011;8410;52.532;13.336;2023-06-22T01:40:06;12.30;;;11.23;;
16593;SDS011;8410;52.532;13.336;2023-06-22T01:42:35;11.88;;;10.98;;
16593;SDS011;8410;52.532;13.336;2023-06-22T01:45:04;12.63;;;11.30;;
16593;SDS011;8410;52.532;13.336;2023-06-22T01:47:35;12.80;;;11.60;;
16593;SDS011;8410;52.532;13.336;2023-06-22T01:50:03;12.35;;;11.35;;
16593;SDS011;8410;52.532;13.336;2023-06-22T01:52:31;12.88;;;11.57;;
16593;SDS011;8410;52.532;13.336;2023-06-22T01:55:00;11.85;;;10.85;;
16593;SDS011;8410;52.532;13.336;2023-06-22T01:57:28;13.30;;;11.95;;
16593;SDS011;8410;52.532;13.336;2023-06-22T01:59:57;12.75;;;11.63;;
16593;SDS011;8410;52.532;13.336;2023-06-22T02:02:29;13.73;;;12.60;;
16593;SDS011;8410;52.532;13.336;2023-06-22T02:05:06;13.05;;;11.95;;
16593;SDS011;8410;52.532;13.336;2023-06-22T02:07:37;14.05;;;12.60;;
16593;SDS011;8410;52.532;13.336;2023-06-22T02:10:08;12.63;;;11.55;;
16593;SDS011;8410;52.532;13.336;2023-06-22T02:12:38;13.63;;;12.52;;
16593;SDS011;8410;52.532;13.336;2023-06-22T02:15:08;14.35;;;13.05;;
16593;SDS011;8410;52.532;13.336;2023-06-22T02:17:36;14.75;;;13.45;;
16593;SDS011;8410;52.532;13.336;2023-06-22T02:20:06;14.35;;;13.05;;
16593;SDS011;8410;52.532;13.336;2023-06-22T02:22:39;14.23;;;12.90;;
16593;SDS011;8410;52.532;13.336;2023-06-22T02:25:07;15.52;;;14.13;;
16593;SDS011;8410;52.532;13.336;2023-06-22T02:27:35;15.75;;;14.40;;
16593;SDS011;8410;52.532;13.336;2023-06-22T02:30:03;15.55;;;14.15;;
16593;SDS011;8410;52.532;13.336;2023-06-22T02:32:31;15.95;;;14.38;;
16593;SDS011;8410;52.532;13.336;2023-06-22T02:35:00;16.83;;;15.52;;
16593;SDS011;8410;52.532;13.336;2023-06-22T02:37:31;17.30;;;15.70;;
16593;SDS011;8410;52.532;13.336;2023-06-22T02:39:59;17.00;;;15.50;;
16593;SDS011;8410;52.532;13.336;2023-06-22T02:42:27;16.50;;;14.80;;
16593;SDS011;8410;52.532;13.336;2023-06-22T02:44:55;16.77;;;15.25;;
16593;SDS011;8410;52.532;13.336;2023-06-22T02:47:22;18.05;;;16.52;;
16593;SDS011;8410;52.532;13.336;2023-06-22T02:49:49;16.85;;;15.45;;
16593;SDS011;8410;52.532;13.336;2023-06-22T02:52:17;16.80;;;15.50;;
16593;SDS011;8410;52.532;13.336;2023-06-22T02:54:46;18.20;;;16.55;;
16593;SDS011;8410;52.532;13.336;2023-06-22T02:57:13;19.65;;;17.83;;
16593;SDS011;8410;52.532;13.336;2023-06-22T02:59:41;19.50;;;17.60;;
16593;SDS011;8410;52.532;13.336;2023-06-22T03:02:09;18.15;;;16.65;;
16593;SDS011;8410;52.532;13.336;2023-06-22T03:04:37;17.73;;;16.02;;
16593;SDS011;8410;52.532;13.336;2023-06-22T03:07:05;17.48;;;16.08;;
16593;SDS011;8410;52.532;13.336;2023-06-22T03:09:32;18.35;;;16.70;;
16593;SDS011;8410;52.532;13.336;2023-06-22T03:12:01;18.17;;;16.67;;
16593;SDS011;8410;52.532;13.336;2023-06-22T03:14:29;17.20;;;15.73;;
16593;SDS011;8410;52.532;13.336;2023-06-22T03:16:56;17.38;;;15.77;;
16593;SDS011;8410;52.532;13.336;2023-06-22T03:19:28;19.38;;;17.73;;
16593;SDS011;8410;52.532;13.336;2023-06-22T03:21:57;17.73;;;16.17;;
16593;SDS011;8410;52.532;13.336;2023-06-22T03:24:26;17.10;;;15.65;;
16593;SDS011;8410;52.532;13.336;2023-06-22T03:26:55;16.60;;;15.32;;
16593;SDS011;8410;52.532;13.336;2023-06-22T03:29:25;16.58;;;15.05;;
16593;SDS011;8410;52.532;13.336;2023-06-22T03:31:56;15.85;;;14.38;;
16593;SDS011;8410;52.532;13.336;2023-06-22T03:34:24;15.75;;;14.35;;
16593;SDS011;8410;52.532;13.336;2023-06-22T03:36:51;14.88;;;13.55;;
16593;SDS011;8410;52.532;13.336;2023-06-22T03:39:19;15.60;;;13.75;;
16593;SDS011;8410;52.532;13.336;2023-06-22T03:41:46;14.73;;;13.43;;
16593;SDS011;8410;52.532;13.336;2023-06-22T03:44:14;14.10;;;12.80;;
16593;SDS011;8410;52.532;13.336;2023-06-22T03:46:43;11.77;;;10.77;;
16593;SDS011;8410;52.532;13.336;2023-06-22T03:49:10;11.05;;;10.15;;
16593;SDS011;8410;52.532;13.336;2023-06-22T03:51:38;11.10;;;10.20;;
16593;SDS011;8410;52.532;13.336;2023-06-22T03:54:05;10.40;;;9.50;;
16593;SDS011;8410;52.532;13.336;2023-06-22T03:56:33;10.50;;;9.60;;
16593;SDS011;8410;52.532;13.336;2023-06-22T03:59:00;10.50;;;9.60;;
16593;SDS011;8410;52.532;13.336;2023-06-22T04:01:28;11.02;;;10.00;;
16593;SDS011;8410;52.532;13.336;2023-06-22T04:03:57;10.63;;;9.63;;
16593;SDS011;8410;52.532;13.336;2023-06-22T04:06:24;10.30;;;9.20;;
16593;SDS011;8410;52.532;13.336;2023-06-22T04:08:52;9.70;;;8.70;;
16593;SDS011;8410;52.532;13.336;2023-06-22T04:11:20;9.88;;;8.95;;
16593;SDS011;8410;52.532;13.336;2023-06-22T04:13:47;10.00;;;9.15;;
16593;SDS011;8410;52.532;13.336;2023-06-22T04:16:17;10.25;;;9.32;;
16593;SDS011;8410;52.532;13.336;2023-06-22T04:18:44;10.15;;;9.25;;
16593;SDS011;8410;52.532;13.336;2023-06-22T04:21:14;9.60;;;8.70;;
16593;SDS011;8410;52.532;13.336;2023-06-22T04:23:41;9.85;;;8.95;;
16593;SDS011;8410;52.532;13.336;2023-06-22T04:26:10;10.07;;;8.30;;
16593;SDS011;8410;52.532;13.336;2023-06-22T04:28:37;10.07;;;8.85;;
16593;SDS011;8410;52.532;13.336;2023-06-22T04:31:05;9.30;;;8.45;;
16593;SDS011;8410;52.532;13.336;2023-06-22T04:33:32;9.05;;;8.13;;
16593;SDS011;8410;52.532;13.336;2023-06-22T04:36:00;9.07;;;8.15;;
16593;SDS011;8410;52.532;13.336;2023-06-22T04:38:29;7.38;;;6.75;;
16593;SDS011;8410;52.532;13.336;2023-06-22T04:40:59;7.32;;;6.20;;
16593;SDS011;8410;52.532;13.336;2023-06-22T04:43:27;7.13;;;6.53;;
16593;SDS011;8410;52.532;13.336;2023-06-22T04:45:56;7.57;;;6.65;;
16593;SDS011;8410;52.532;13.336;2023-06-22T05:01:19;7.15;;;6.13;;
16593;SDS011;8410;52.532;13.336;2023-06-22T05:03:48;6.88;;;6.05;;
16593;SDS011;8410;52.532;13.336;2023-06-22T05:06:16;6.72;;;5.50;;
16593;SDS011;8410;52.532;13.336;2023-06-22T05:08:43;6.38;;;5.75;;
16593;SDS011;8410;52.532;13.336;2023-06-22T05:11:11;7.35;;;5.75;;
16593;SDS011;8410;52.532;13.336;2023-06-22T05:13:38;8.15;;;5.10;;
16593;SDS011;8410;52.532;13.336;2023-06-22T05:16:06;6.68;;;5.10;;
16593;SDS011;8410;52.532;13.336;2023-06-22T05:18:35;6.72;;;4.68;;
16593;SDS011;8410;52.532;13.336;2023-06-22T05:21:03;4.65;;;4.25;;
16593;SDS011;8410;52.532;13.336;2023-06-22T05:23:30;5.82;;;5.32;;
16593;SDS011;8410;52.532;13.336;2023-06-22T05:25:58;5.13;;;3.95;;
16593;SDS011;8410;52.532;13.336;2023-06-22T05:28:25;4.90;;;4.10;;
16593;SDS011;8410;52.532;13.336;2023-06-22T05:30:53;5.70;;;4.18;;
16593;SDS011;8410;52.532;13.336;2023-06-22T05:33:20;6.32;;;4.20;;
16593;SDS011;8410;52.532;13.336;2023-06-22T05:35:49;5.78;;;4.40;;
16593;SDS011;8410;52.532;13.336;2023-06-22T05:38:17;6.00;;;4.28;;
16593;SDS011;8410;52.532;13.336;2023-06-22T05:40:44;4.88;;;4.10;;
16593;SDS011;8410;52.532;13.336;2023-06-22T05:43:12;7.95;;;4.40;;
16593;SDS011;8410;52.532;13.336;2023-06-22T05:45:39;6.25;;;3.97;;
16593;SDS011;8410;52.532;13.336;2023-06-22T05:48:07;5.90;;;4.05;;
16593;SDS011;8410;52.532;13.336;2023-06-22T05:50:34;5.60;;;3.88;;
16593;SDS011;8410;52.532;13.336;2023-06-22T05:53:04;4.57;;;3.40;;
16593;SDS011;8410;52.532;13.336;2023-06-22T05:55:33;5.18;;;4.07;;
16593;SDS011;8410;52.532;13.336;2023-06-22T05:58:01;4.50;;;3.60;;
16593;SDS011;8410;52.532;13.336;2023-06-22T06:00:29;4.68;;;3.55;;
16593;SDS011;8410;52.532;13.336;2023-06-22T06:02:57;6.15;;;4.03;;
16593;SDS011;8410;52.532;13.336;2023-06-22T06:05:29;6.97;;;4.50;;
16593;SDS011;8410;52.532;13.336;2023-06-22T06:07:57;5.22;;;4.53;;
16593;SDS011;8410;52.532;13.336;2023-06-22T06:10:26;5.20;;;4.45;;
16593;SDS011;8410;52.532;13.336;2023-06-22T06:12:54;5.60;;;4.38;;
16593;SDS011;8410;52.532;13.336;2023-06-22T06:15:22;7.20;;;4.22;;
16593;SDS011;8410;52.532;13.336;2023-06-22T06:17:50;4.97;;;4.47;;
16593;SDS011;8410;52.532;13.336;2023-06-22T06:20:19;4.60;;;4.20;;
16593;SDS011;8410;52.532;13.336;2023-06-22T06:22:47;7.80;;;4.07;;
16593;SDS011;8410;52.532;13.336;2023-06-22T06:25:15;5.50;;;4.57;;
16593;SDS011;8410;52.532;13.336;2023-06-22T06:27:44;7.35;;;5.10;;
16593;SDS011;8410;52.532;13.336;2023-06-22T06:30:12;6.45;;;4.50;;
16593;SDS011;8410;52.532;13.336;2023-06-22T06:32:41;6.72;;;4.53;;
16593;SDS011;8410;52.532;13.336;2023-06-22T06:35:12;8.95;;;4.95;;
16593;SDS011;8410;52.532;13.336;2023-06-22T06:37:41;7.65;;;4.80;;
16593;SDS011;8410;52.532;13.336;2023-06-22T06:40:11;7.72;;;4.60;;
16593;SDS011;8410;52.532;13.336;2023-06-22T06:42:40;5.28;;;4.88;;
16593;SDS011;8410;52.532;13.336;2023-06-22T06:45:12;6.10;;;4.13;;
16593;SDS011;8410;52.532;13.336;2023-06-22T06:47:40;5.32;;;4.82;;
16593;SDS011;8410;52.532;13.336;2023-06-22T06:50:08;5.05;;;4.35;;
16593;SDS011;8410;52.532;13.336;2023-06-22T06:52:36;4.90;;;4.38;;
16593;SDS011;8410;52.532;13.336;2023-06-22T06:55:04;7.03;;;4.05;;
16593;SDS011;8410;52.532;13.336;2023-06-22T06:57:35;9.68;;;4.38;;
16593;SDS011;8410;52.532;13.336;2023-06-22T07:00:05;4.60;;;4.03;;
16593;SDS011;8410;52.532;13.336;2023-06-22T07:02:37;4.75;;;3.83;;
16593;SDS011;8410;52.532;13.336;2023-06-22T07:05:06;3.85;;;3.13;;
16593;SDS011;8410;52.532;13.336;2023-06-22T07:07:34;7.45;;;3.92;;
16593;SDS011;8410;52.532;13.336;2023-06-22T07:10:04;6.25;;;3.85;;
16593;SDS011;8410;52.532;13.336;2023-06-22T07:12:32;3.92;;;3.63;;
16593;SDS011;8410;52.532;13.336;2023-06-22T07:15:01;4.95;;;3.33;;
16593;SDS011;8410;52.532;13.336;2023-06-22T07:17:29;3.53;;;3.22;;
16593;SDS011;8410;52.532;13.336;2023-06-22T07:19:58;5.13;;;3.60;;
16593;SDS011;8410;52.532;13.336;2023-06-22T07:22:26;5.57;;;3.08;;
16593;SDS011;8410;52.532;13.336;2023-06-22T07:24:53;3.97;;;3.10;;
16593;SDS011;8410;52.532;13.336;2023-06-22T07:27:21;5.03;;;3.05;;
16593;SDS011;8410;52.532;13.336;2023-06-22T07:29:48;3.40;;;3.10;;
16593;SDS011;8410;52.532;13.336;2023-06-22T07:32:16;5.95;;;3.28;;
16593;SDS011;8410;52.532;13.336;2023-06-22T07:34:43;3.63;;;3.30;;
16593;SDS011;8410;52.532;13.336;2023-06-22T07:37:12;5.35;;;3.40;;
16593;SDS011;8410;52.532;13.336;2023-06-22T07:39:39;3.53;;;3.10;;
16593;SDS011;8410;52.532;13.336;2023-06-22T07:42:08;3.95;;;3.30;;
16593;SDS011;8410;52.532;13.336;2023-06-22T07:44:36;4.78;;;3.13;;
16593;SDS011;8410;52.532;13.336;2023-06-22T07:47:04;3.45;;;2.85;;
16593;SDS011;8410;52.532;13.336;2023-06-22T07:49:31;4.90;;;2.65;;
16593;SDS011;8410;52.532;13.336;2023-06-22T07:51:59;3.50;;;3.20;;
16593;SDS011;8410;52.532;13.336;2023-06-22T07:54:30;6.13;;;3.28;;
16593;SDS011;8410;52.532;13.336;2023-06-22T07:56:58;2.88;;;2.40;;
16593;SDS011;8410;52.532;13.336;2023-06-22T07:59:25;6.72;;;2.80;;
16593;SDS011;8410;52.532;13.336;2023-06-22T08:01:53;3.92;;;2.83;;
16593;SDS011;8410;52.532;13.336;2023-06-22T08:04:22;4.00;;;2.70;;
16593;SDS011;8410;52.532;13.336;2023-06-22T08:06:49;4.78;;;3.30;;
16593;SDS011;8410;52.532;13.336;2023-06-22T08:09:17;3.30;;;2.67;;
16593;SDS011;8410;52.532;13.336;2023-06-22T08:11:46;6.30;;;3.38;;
16593;SDS011;8410;52.532;13.336;2023-06-22T08:14:14;3.28;;;2.97;;
16593;SDS011;8410;52.532;13.336;2023-06-22T08:16:41;3.65;;;2.63;;
16593;SDS011;8410;52.532;13.336;2023-06-22T08:19:09;3.45;;;3.03;;
16593;SDS011;8410;52.532;13.336;2023-06-22T08:21:36;4.32;;;3.17;;
16593;SDS011;8410;52.532;13.336;2023-06-22T08:24:04;3.90;;;3.00;;
16593;SDS011;8410;52.532;13.336;2023-06-22T08:26:33;4.55;;;2.75;;
16593;SDS011;8410;52.532;13.336;2023-06-22T08:29:04;4.93;;;3.20;;
16593;SDS011;8410;52.532;13.336;2023-06-22T08:31:31;3.30;;;3.00;;
16593;SDS011;8410;52.532;13.336;2023-06-22T08:34:00;5.22;;;2.70;;
16593;SDS011;8410;52.532;13.336;2023-06-22T08:36:28;4.50;;;3.10;;
16593;SDS011;8410;52.532;13.336;2023-06-22T08:39:01;3.60;;;2.85;;
16593;SDS011;8410;52.532;13.336;2023-06-22T08:41:29;4.60;;;2.85;;
16593;SDS011;8410;52.532;13.336;2023-06-22T08:43:57;2.80;;;2.60;;
16593;SDS011;8410;52.532;13.336;2023-06-22T08:46:26;3.28;;;2.97;;
16593;SDS011;8410;52.532;13.336;2023-06-22T08:48:56;4.22;;;3.15;;
16593;SDS011;8410;52.532;13.336;2023-06-22T08:51:24;3.25;;;2.65;;
16593;SDS011;8410;52.532;13.336;2023-06-22T08:53:52;4.22;;;2.92;;
16593;SDS011;8410;52.532;13.336;2023-06-22T08:56:20;3.08;;;2.78;;
16593;SDS011;8410;52.532;13.336;2023-06-22T08:58:47;3.55;;;3.20;;
16593;SDS011;8410;52.532;13.336;2023-06-22T09:01:15;3.30;;;3.00;;
16593;SDS011;8410;52.532;13.336;2023-06-22T09:03:44;3.13;;;2.83;;
16593;SDS011;8410;52.532;13.336;2023-06-22T09:06:20;3.22;;;2.78;;
16593;SDS011;8410;52.532;13.336;2023-06-22T09:08:48;2.95;;;2.50;;
16593;SDS011;8410;52.532;13.336;2023-06-22T09:11:15;3.78;;;2.90;;
16593;SDS011;8410;52.532;13.336;2023-06-22T09:13:43;5.38;;;3.30;;
16593;SDS011;8410;52.532;13.336;2023-06-22T09:16:10;3.10;;;2.85;;
16593;SDS011;8410;52.532;13.336;2023-06-22T09:18:38;3.47;;;3.17;;
16593;SDS011;8410;52.532;13.336;2023-06-22T09:21:07;4.35;;;3.10;;
16593;SDS011;8410;52.532;13.336;2023-06-22T09:23:34;3.50;;;3.20;;
16593;SDS011;8410;52.532;13.336;2023-06-22T09:26:02;3.60;;;3.30;;
16593;SDS011;8410;52.532;13.336;2023-06-22T09:28:30;3.90;;;3.35;;
16593;SDS011;8410;52.532;13.336;2023-06-22T09:30:58;3.30;;;2.97;;
16593;SDS011;8410;52.532;13.336;2023-06-22T09:33:26;4.43;;;3.15;;
16593;SDS011;8410;52.532;13.336;2023-06-22T09:35:54;3.95;;;3.03;;
16593;SDS011;8410;52.532;13.336;2023-06-22T09:38:24;3.38;;;3.08;;
16593;SDS011;8410;52.532;13.336;2023-06-22T09:40:51;3.45;;;3.15;;
16593;SDS011;8410;52.532;13.336;2023-06-22T09:43:19;3.72;;;3.42;;
16593;SDS011;8410;52.532;13.336;2023-06-22T09:45:46;3.22;;;2.90;;
16593;SDS011;8410;52.532;13.336;2023-06-22T09:48:14;4.15;;;3.40;;
16593;SDS011;8410;52.532;13.336;2023-06-22T09:50:41;4.20;;;3.17;;
16593;SDS011;8410;52.532;13.336;2023-06-22T09:53:09;3.88;;;3.40;;
16593;SDS011;8410;52.532;13.336;2023-06-22T09:55:38;4.40;;;3.78;;
16593;SDS011;8410;52.532;13.336;2023-06-22T09:58:05;5.90;;;3.00;;
16593;SDS011;8410;52.532;13.336;2023-06-22T10:00:33;3.47;;;3.20;;
16593;SDS011;8410;52.532;13.336;2023-06-22T10:03:00;5.88;;;4.05;;
16593;SDS011;8410;52.532;13.336;2023-06-22T10:05:28;4.47;;;3.30;;
16593;SDS011;8410;52.532;13.336;2023-06-22T10:07:56;3.70;;;3.40;;
16593;SDS011;8410;52.532;13.336;2023-06-22T10:10:23;3.83;;;3.35;;
16593;SDS011;8410;52.532;13.336;2023-06-22T10:12:55;5.05;;;3.30;;
16593;SDS011;8410;52.532;13.336;2023-06-22T10:15:24;4.47;;;3.35;;
16593;SDS011;8410;52.532;13.336;2023-06-22T10:17:53;4.93;;;3.15;;
16593;SDS011;8410;52.532;13.336;2023-06-22T10:20:21;5.60;;;3.42;;
16593;SDS011;8410;52.532;13.336;2023-06-22T10:22:48;5.03;;;3.70;;
16593;SDS011;8410;52.532;13.336;2023-06-22T10:25:17;3.60;;;3.30;;
16593;SDS011;8410;52.532;13.336;2023-06-22T10:27:44;3.97;;;3.60;;
16593;SDS011;8410;52.532;13.336;2023-06-22T10:30:13;3.85;;;3.55;;
16593;SDS011;8410;52.532;13.336;2023-06-22T10:32:42;4.32;;;3.72;;
16593;SDS011;8410;52.532;13.336;2023-06-22T10:35:10;4.15;;;3.75;;
16593;SDS011;8410;52.532;13.336;2023-06-22T10:37:52;3.92;;;3.30;;
16593;SDS011;8410;52.532;13.336;2023-06-22T10:40:20;4.32;;;3.92;;
16593;SDS011;8410;52.532;13.336;2023-06-22T10:42:48;4.03;;;3.65;;
16593;SDS011;8410;52.532;13.336;2023-06-22T10:45:17;3.60;;;3.40;;
16593;SDS011;8410;52.532;13.336;2023-06-22T10:47:45;4.15;;;3.70;;
16593;SDS011;8410;52.532;13.336;2023-06-22T10:50:12;3.78;;;3.47;;
16593;SDS011;8410;52.532;13.336;2023-06-22T10:52:40;4.03;;;3.63;;
16593;SDS011;8410;52.532;13.336;2023-06-22T10:55:08;4.65;;;3.55;;
16593;SDS011;8410;52.532;13.336;2023-06-22T10:57:36;3.85;;;3.60;;
16593;SDS011;8410;52.532;13.336;2023-06-22T11:00:05;5.57;;;4.10;;
16593;SDS011;8410;52.532;13.336;2023-06-22T11:02:36;5.28;;;4.03;;
16593;SDS011;8410;52.532;13.336;2023-06-22T11:05:04;4.32;;;3.92;;
16593;SDS011;8410;52.532;13.336;2023-06-22T11:07:32;4.38;;;4.07;;
16593;SDS011;8410;52.532;13.336;2023-06-22T11:10:00;4.55;;;4.03;;
16593;SDS011;8410;52.532;13.336;2023-06-22T11:12:28;5.07;;;4.15;;
16593;SDS011;8410;52.532;13.336;2023-06-22T11:14:55;5.10;;;4.60;;
16593;SDS011;8410;52.532;13.336;2023-06-22T11:17:23;4.18;;;3.88;;
16593;SDS011;8410;52.532;13.336;2023-06-22T11:19:52;7.80;;;3.90;;
16593;SDS011;8410;52.532;13.336;2023-06-22T11:22:19;4.40;;;3.97;;
16593;SDS011;8410;52.532;13.336;2023-06-22T11:24:47;3.70;;;3.40;;
16593;SDS011;8410;52.532;13.336;2023-06-22T11:27:15;4.30;;;3.90;;
16593;SDS011;8410;52.532;13.336;2023-06-22T11:29:42;4.30;;;3.90;;
16593;SDS011;8410;52.532;13.336;2023-06-22T11:32:10;6.32;;;4.13;;
16593;SDS011;8410;52.532;13.336;2023-06-22T11:34:40;3.60;;;3.30;;
16593;SDS011;8410;52.532;13.336;2023-06-22T11:37:09;5.88;;;4.15;;
16593;SDS011;8410;52.532;13.336;2023-06-22T11:39:36;4.20;;;3.90;;
16593;SDS011;8410;52.532;13.336;2023-06-22T11:42:13;6.20;;;5.03;;
16593;SDS011;8410;52.532;13.336;2023-06-22T11:44:40;4.50;;;3.92;;
16593;SDS011;8410;52.532;13.336;2023-06-22T11:47:08;4.38;;;3.97;;
16593;SDS011;8410;52.532;13.336;2023-06-22T11:49:36;4.53;;;4.13;;
16593;SDS011;8410;52.532;13.336;2023-06-22T11:52:03;4.40;;;3.92;;
16593;SDS011;8410;52.532;13.336;2023-06-22T11:54:33;3.95;;;3.65;;
16593;SDS011;8410;52.532;13.336;2023-06-22T11:57:00;4.28;;;3.90;;
16593;SDS011;8410;52.532;13.336;2023-06-22T11:59:28;4.18;;;3.78;;
16593;SDS011;8410;52.532;13.336;2023-06-22T12:01:56;5.15;;;3.80;;
16593;SDS011;8410;52.532;13.336;2023-06-22T12:04:24;4.20;;;3.80;;
16593;SDS011;8410;52.532;13.336;2023-06-22T12:06:52;4.45;;;4.05;;
16593;SDS011;8410;52.532;13.336;2023-06-22T12:09:19;5.88;;;4.50;;
16593;SDS011;8410;52.532;13.336;2023-06-22T12:11:48;4.38;;;3.83;;
16593;SDS011;8410;52.532;13.336;2023-06-22T12:14:15;4.30;;;3.70;;
16593;SDS011;8410;52.532;13.336;2023-06-22T12:16:43;4.32;;;3.90;;
16593;SDS011;8410;52.532;13.336;2023-06-22T12:19:11;4.88;;;4.38;;
16593;SDS011;8410;52.532;13.336;2023-06-22T12:21:38;7.35;;;4.55;;
16593;SDS011;8410;52.532;13.336;2023-06-22T12:24:07;4.90;;;4.40;;
16593;SDS011;8410;52.532;13.336;2023-06-22T12:29:24;6.75;;;4.25;;
16593;SDS011;8410;52.532;13.336;2023-06-22T12:31:52;6.05;;;4.15;;
16593;SDS011;8410;52.532;13.336;2023-06-22T12:34:19;6.50;;;4.05;;
16593;SDS011;8410;52.532;13.336;2023-06-22T12:36:55;5.78;;;4.22;;
16593;SDS011;8410;52.532;13.336;2023-06-22T12:39:26;3.88;;;3.58;;
16593;SDS011;8410;52.532;13.336;2023-06-22T12:41:54;5.10;;;3.72;;
16593;SDS011;8410;52.532;13.336;2023-06-22T12:44:22;4.53;;;4.13;;
16593;SDS011;8410;52.532;13.336;2023-06-22T12:46:49;3.35;;;3.05;;
16593;SDS011;8410;52.532;13.336;2023-06-22T12:49:17;4.78;;;4.18;;
16593;SDS011;8410;52.532;13.336;2023-06-22T12:51:45;4.93;;;4.53;;
16593;SDS011;8410;52.532;13.336;2023-06-22T12:54:12;4.13;;;3.83;;
16593;SDS011;8410;52.532;13.336;2023-06-22T12:56:40;4.05;;;3.70;;
16593;SDS011;8410;52.532;13.336;2023-06-22T12:59:11;5.85;;;4.30;;
16593;SDS011;8410;52.532;13.336;2023-06-22T13:01:38;5.18;;;4.10;;
16593;SDS011;8410;52.532;13.336;2023-06-22T13:04:06;4.45;;;4.15;;
16593;SDS011;8410;52.532;13.336;2023-06-22T13:06:34;4.72;;;3.47;;
16593;SDS011;8410;52.532;13.336;2023-06-22T13:09:01;4.95;;;4.55;;
16593;SDS011;8410;52.532;13.336;2023-06-22T13:11:34;4.47;;;4.05;;
16593;SDS011;8410;52.532;13.336;2023-06-22T13:14:01;5.40;;;4.47;;
16593;SDS011;8410;52.532;13.336;2023-06-22T13:16:33;4.53;;;4.07;;
16593;SDS011;8410;52.532;13.336;2023-06-22T13:19:00;4.00;;;3.70;;
16593;SDS011;8410;52.532;13.336;2023-06-22T13:21:28;6.35;;;4.15;;
16593;SDS011;8410;52.532;13.336;2023-06-22T13:23:56;4.53;;;4.13;;
16593;SDS011;8410;52.532;13.336;2023-06-22T13:26:24;4.18;;;3.78;;
16593;SDS011;8410;52.532;13.336;2023-06-22T13:28:52;4.28;;;3.97;;
16593;SDS011;8410;52.532;13.336;2023-06-22T13:31:19;5.95;;;5.35;;
16593;SDS011;8410;52.532;13.336;2023-06-22T13:33:49;4.93;;;4.35;;
16593;SDS011;8410;52.532;13.336;2023-06-22T13:36:18;11.25;;;4.43;;
16593;SDS011;8410;52.532;13.336;2023-06-22T13:38:46;5.38;;;4.88;;
16593;SDS011;8410;52.532;13.336;2023-06-22T13:41:13;5.15;;;4.60;;
16593;SDS011;8410;52.532;13.336;2023-06-22T13:43:41;4.88;;;4.47;;
16593;SDS011;8410;52.532;13.336;2023-06-22T13:46:08;4.65;;;4.28;;
16593;SDS011;8410;52.532;13.336;2023-06-22T13:48:36;4.78;;;4.38;;
16593;SDS011;8410;52.532;13.336;2023-06-22T13:51:04;4.68;;;4.25;;
16593;SDS011;8410;52.532;13.336;2023-06-22T13:53:32;4.70;;;4.30;;
16593;SDS011;8410;52.532;13.336;2023-06-22T13:55:59;4.72;;;4.28;;
16593;SDS011;8410;52.532;13.336;2023-06-22T13:58:27;4.43;;;4.03;;
16593;SDS011;8410;52.532;13.336;2023-06-22T14:00:54;4.88;;;4.43;;
16593;SDS011;8410;52.532;13.336;2023-06-22T14:03:22;4.80;;;4.30;;
16593;SDS011;8410;52.532;13.336;2023-06-22T14:05:51;4.18;;;3.80;;
16593;SDS011;8410;52.532;13.336;2023-06-22T14:08:21;5.45;;;4.57;;
16593;SDS011;8410;52.532;13.336;2023-06-22T14:10:52;5.43;;;4.93;;
16593;SDS011;8410;52.532;13.336;2023-06-22T14:13:20;4.80;;;4.40;;
16593;SDS011;8410;52.532;13.336;2023-06-22T14:15:48;4.55;;;4.25;;
16593;SDS011;8410;52.532;13.336;2023-06-22T14:18:18;4.20;;;3.90;;
16593;SDS011;8410;52.532;13.336;2023-06-22T14:20:45;4.90;;;4.50;;
16593;SDS011;8410;52.532;13.336;2023-06-22T14:23:14;5.25;;;4.80;;
16593;SDS011;8410;52.532;13.336;2023-06-22T14:25:43;4.70;;;4.25;;
16593;SDS011;8410;52.532;13.336;2023-06-22T14:28:10;9.45;;;4.35;;
16593;SDS011;8410;52.532;13.336;2023-06-22T14:30:38;5.97;;;4.82;;
16593;SDS011;8410;52.532;13.336;2023-06-22T14:33:05;5.75;;;4.50;;
16593;SDS011;8410;52.532;13.336;2023-06-22T14:35:33;4.63;;;4.25;;
16593;SDS011;8410;52.532;13.336;2023-06-22T14:38:00;5.07;;;4.68;;
16593;SDS011;8410;52.532;13.336;2023-06-22T14:40:28;7.35;;;4.75;;
16593;SDS011;8410;52.532;13.336;2023-06-22T14:43:02;6.45;;;4.45;;
16593;SDS011;8410;52.532;13.336;2023-06-22T14:45:30;5.10;;;4.60;;
16593;SDS011;8410;52.532;13.336;2023-06-22T14:47:57;5.80;;;4.82;;
16593;SDS011;8410;52.532;13.336;2023-06-22T14:50:25;4.78;;;4.45;;
16593;SDS011;8410;52.532;13.336;2023-06-22T14:52:52;4.88;;;4.47;;
16593;SDS011;8410;52.532;13.336;2023-06-22T14:55:21;5.25;;;4.60;;
16593;SDS011;8410;52.532;13.336;2023-06-22T14:57:48;4.88;;;4.47;;
16593;SDS011;8410;52.532;13.336;2023-06-22T15:00:17;5.30;;;4.80;;
16593;SDS011;8410;52.532;13.336;2023-06-22T15:02:46;5.30;;;4.80;;